Time;durP1;ratioP1;P1;durP2;ratioP2;P2;SDS_P1;SDS_P2;PMS_P1;PMS_P2;Temp;Humidity;BMP_temperature;BMP_pressure;BME280_temperature;BME280_humidity;BME280_pressure;Samples;Min_cycle;Max_cycle;Signal;HPM_P1;HPM_P2
2022/12/07 00:02:21;;;;;;;19.33;14.30;;;;;;;2.90;100.00;101774.09;5007520;28;20056;-78
2022/12/07 00:04:49;;;;;;;20.23;13.70;;;;;;;2.90;100.00;101773.22;5023639;28;20013;-78
2022/12/07 00:07:14;;;;;;;16.85;14.02;;;;;;;2.86;100.00;101771.63;5029839;28;20034;-78
2022/12/07 00:09:41;;;;;;;18.33;14.75;;;;;;;2.80;100.00;101772.59;5010965;28;20027;-78
2022/12/07 00:12:06;;;;;;;17.77;14.63;;;;;;;2.76;100.00;101771.84;5010947;28;20025;-78
2022/12/07 00:14:32;;;;;;;18.67;14.23;;;;;;;2.74;100.00;101764.97;5029174;28;20083;-78
2022/12/07 00:16:57;;;;;;;17.73;13.15;;;;;;;2.68;100.00;101768.59;5028322;28;20133;-78
2022/12/07 00:19:22;;;;;;;17.10;13.80;;;;;;;2.66;100.00;101772.13;5027439;28;20036;-78
2022/12/07 00:21:48;;;;;;;15.60;13.63;;;;;;;2.61;100.00;101761.00;5013396;28;20430;-79
2022/12/07 00:24:13;;;;;;;17.55;13.93;;;;;;;2.62;100.00;101760.13;5010396;28;20026;-78
2022/12/07 00:26:40;;;;;;;17.60;14.80;;;;;;;2.59;100.00;101762.78;5011145;28;20068;-78
2022/12/07 00:29:16;;;;;;;16.98;14.10;;;;;;;2.55;100.00;101755.97;5029606;28;20022;-78
2022/12/07 00:31:41;;;;;;;20.13;14.88;;;;;;;2.49;100.00;101752.66;5028027;28;20018;-78
2022/12/07 00:34:11;;;;;;;17.33;15.43;;;;;;;2.56;100.00;101747.28;5007948;28;20132;-78
2022/12/07 00:36:36;;;;;;;15.80;14.07;;;;;;;2.48;100.00;101740.56;5015735;28;20040;-78
2022/12/07 00:39:05;;;;;;;16.40;14.68;;;;;;;2.48;100.00;101745.75;5029088;28;20022;-78
2022/12/07 00:41:30;;;;;;;18.05;13.85;;;;;;;2.42;100.00;101745.91;5011866;28;20048;-77
2022/12/07 00:43:57;;;;;;;16.13;14.07;;;;;;;2.42;100.00;101748.50;5012414;28;20136;-78
2022/12/07 00:46:23;;;;;;;17.33;14.07;;;;;;;2.43;100.00;101747.63;5010352;28;20484;-78
2022/12/07 00:48:49;;;;;;;18.83;15.00;;;;;;;2.42;100.00;101756.31;5029998;28;20492;-78
2022/12/07 00:51:17;;;;;;;16.60;14.18;;;;;;;2.38;100.00;101749.47;5028222;28;20120;-78
2022/12/07 00:53:42;;;;;;;16.58;14.35;;;;;;;2.40;100.00;101747.69;5007325;28;20026;-77
2022/12/07 00:56:25;;;;;;;16.92;14.27;;;;;;;2.39;100.00;101745.97;5026402;28;20041;-76
2022/12/07 00:59:03;;;;;;;15.52;13.93;;;;;;;2.35;100.00;101762.53;5011552;28;20025;-76
2022/12/07 01:01:32;;;;;;;16.67;13.50;;;;;;;2.34;100.00;101753.03;5011621;28;20029;-77
2022/12/07 01:03:58;;;;;;;18.88;14.23;;;;;;;2.32;100.00;101749.63;5028970;28;20036;-77
2022/12/07 01:06:24;;;;;;;16.17;13.45;;;;;;;2.27;100.00;101751.47;5028027;28;20029;-77
2022/12/07 01:08:49;;;;;;;18.05;13.68;;;;;;;2.27;100.00;101748.03;5009151;28;20044;-77
2022/12/07 01:11:20;;;;;;;15.57;13.63;;;;;;;2.22;100.00;101752.50;5033294;28;20112;-77
2022/12/07 01:13:46;;;;;;;16.17;13.10;;;;;;;2.17;100.00;101757.78;5032446;28;20045;-77
2022/12/07 01:16:14;;;;;;;18.10;13.50;;;;;;;2.11;100.00;101747.56;5013989;28;20032;-77
2022/12/07 01:18:40;;;;;;;16.48;13.30;;;;;;;2.13;100.00;101744.03;5015105;28;20075;-77
2022/12/07 01:21:08;;;;;;;16.23;14.02;;;;;;;2.15;100.00;101749.19;5031597;28;20029;-77
2022/12/07 01:23:35;;;;;;;19.77;14.95;;;;;;;2.12;100.00;101749.28;5032768;28;20083;-77
2022/12/07 01:26:06;;;;;;;16.98;14.18;;;;;;;2.14;100.00;101750.94;5032824;28;20028;-77
2022/12/07 01:28:32;;;;;;;17.80;15.85;;;;;;;2.18;100.00;101752.56;5006743;28;20022;-77
2022/12/07 01:31:04;;;;;;;18.73;14.88;;;;;;;2.23;100.00;101755.03;5016362;28;20485;-78
2022/12/07 01:33:32;;;;;;;22.07;16.30;;;;;;;2.25;100.00;101747.22;5024473;28;20124;-78
2022/12/07 01:36:14;;;;;;;21.55;16.50;;;;;;;2.28;100.00;101753.19;5032532;28;20129;-79
2022/12/07 01:38:39;;;;;;;20.92;16.50;;;;;;;2.33;100.00;101745.28;5032599;28;20025;-78
2022/12/07 01:41:05;;;;;;;20.77;17.25;;;;;;;2.38;100.00;101744.25;5032192;28;20520;-79
2022/12/07 01:43:32;;;;;;;22.65;16.88;;;;;;;2.39;100.00;101751.16;5032722;28;20116;-79
2022/12/07 01:45:58;;;;;;;19.13;16.17;;;;;;;2.39;100.00;101755.50;5013603;28;20669;-78
2022/12/07 01:48:42;;;;;;;23.55;17.27;;;;;;;2.44;100.00;101762.31;5012038;28;20568;-79
2022/12/07 01:51:13;;;;;;;20.08;16.95;;;;;;;2.44;100.00;101758.84;5003742;28;20021;-78
2022/12/07 01:53:45;;;;;;;17.10;15.43;;;;;;;2.47;100.00;101749.25;5014781;28;20032;-78
2022/12/07 01:56:19;;;;;;;23.03;17.13;;;;;;;2.54;100.00;101754.28;5013925;28;20024;-78
2022/12/07 01:58:45;;;;;;;19.13;16.95;;;;;;;2.55;100.00;101749.03;5011731;28;20034;-79
2022/12/07 02:01:10;;;;;;;24.63;17.90;;;;;;;2.54;100.00;101741.28;4998177;28;20033;-78
2022/12/07 02:03:39;;;;;;;19.52;16.08;;;;;;;2.49;100.00;101739.66;5012495;28;20651;-78
2022/12/07 02:06:06;;;;;;;25.77;16.80;;;;;;;2.49;100.00;101737.06;5032033;28;20033;-79
2022/12/07 02:08:32;;;;;;;20.48;15.95;;;;;;;2.51;100.00;101735.28;5031258;28;20069;-79
2022/12/07 02:10:58;;;;;;;18.55;15.20;;;;;;;2.53;100.00;101734.38;5013505;28;20472;-79
2022/12/07 02:13:27;;;;;;;21.85;16.23;;;;;;;2.54;100.00;101739.53;5013184;28;20329;-78
2022/12/07 02:16:06;;;;;;;20.85;15.95;;;;;;;2.57;100.00;101734.25;5031754;28;20029;-78
2022/12/07 02:19:01;;;;;;;18.30;16.17;;;;;;;2.55;100.00;101737.78;5028733;28;20053;-78
2022/12/07 02:21:44;;;;;;;20.45;15.90;;;;;;;2.54;100.00;101736.09;5010563;28;20022;-79
2022/12/07 02:24:28;;;;;;;18.02;14.40;;;;;;;2.49;100.00;101742.25;5009893;28;20124;-79
2022/12/07 02:27:12;;;;;;;17.80;13.57;;;;;;;2.47;100.00;101744.06;5012072;28;20026;-79
2022/12/07 02:29:47;;;;;;;19.45;13.57;;;;;;;2.39;100.00;101734.72;5028060;28;20057;-79
2022/12/07 02:32:26;;;;;;;15.90;13.55;;;;;;;2.42;100.00;101740.72;5015277;28;20029;-79
2022/12/07 02:35:01;;;;;;;18.48;13.98;;;;;;;2.36;100.00;101738.25;5011349;28;20029;-79
2022/12/07 02:37:36;;;;;;;14.60;12.77;;;;;;;2.32;100.00;101736.63;5011505;28;20029;-79
2022/12/07 02:40:20;;;;;;;20.30;13.43;;;;;;;2.27;100.00;101735.03;5031967;28;20029;-79
2022/12/07 02:42:50;;;;;;;16.10;13.00;;;;;;;2.25;100.00;101727.28;5013882;28;20029;-79
2022/12/07 02:45:20;;;;;;;17.33;12.50;;;;;;;2.16;100.00;101733.59;5030476;28;20028;-79
2022/12/07 02:47:50;;;;;;;17.13;13.20;;;;;;;2.18;100.00;101737.00;5031615;28;20375;-79
2022/12/07 02:50:19;;;;;;;15.95;12.98;;;;;;;2.20;100.00;101739.53;5030878;28;20041;-79
2022/12/07 02:52:44;;;;;;;17.48;13.68;;;;;;;2.21;100.00;101736.06;5013253;28;20025;-79
2022/12/07 02:55:11;;;;;;;16.05;13.63;;;;;;;2.22;100.00;101732.56;5017094;28;20492;-79
2022/12/07 02:57:58;;;;;;;16.80;13.98;;;;;;;2.25;100.00;101737.69;5020174;28;20029;-78
2022/12/07 03:00:23;;;;;;;15.60;13.27;;;;;;;2.23;100.00;101733.41;5011949;28;20036;-79
2022/12/07 03:03:10;;;;;;;16.73;13.68;;;;;;;2.25;100.00;101736.84;5030641;28;20397;-79
2022/12/07 03:05:48;;;;;;;17.50;13.10;;;;;;;2.20;100.00;101739.53;5030123;28;20029;-79
2022/12/07 03:08:35;;;;;;;15.98;12.98;;;;;;;2.20;100.00;101743.00;5013005;28;20029;-79
2022/12/07 03:11:04;;;;;;;17.52;12.25;;;;;;;2.13;100.00;101738.00;5029157;28;20029;-79
2022/12/07 03:13:41;;;;;;;22.38;13.38;;;;;;;2.15;100.00;101736.22;5010844;28;20047;-79
2022/12/07 03:16:20;;;;;;;15.63;11.90;;;;;;;2.08;100.00;101739.84;4993531;28;20390;-79
2022/12/07 03:18:56;;;;;;;17.25;12.60;;;;;;;2.07;100.00;101748.53;5028702;28;20062;-78
2022/12/07 03:21:31;;;;;;;19.13;12.38;;;;;;;2.08;100.00;101735.53;5021394;28;20576;-79
2022/12/07 03:23:59;;;;;;;14.00;11.40;;;;;;;2.02;100.00;101734.81;5030698;28;20040;-79
2022/12/07 03:29:54;;;;;;;16.33;11.55;;;;;;;1.97;100.00;101721.06;5185798;23;20119;-80
2022/12/07 03:32:28;;;;;;;12.50;11.20;;;;;;;1.97;100.00;101723.66;5030657;28;20029;-80
2022/12/07 03:35:04;;;;;;;15.15;11.15;;;;;;;1.95;100.00;101725.44;5021257;28;20034;-80
2022/12/07 03:37:48;;;;;;;14.77;11.43;;;;;;;1.93;100.00;101728.09;5025563;28;20125;-80
2022/12/07 03:40:22;;;;;;;18.67;11.73;;;;;;;1.92;100.00;101736.75;5030805;28;20457;-84
2022/12/07 03:42:48;;;;;;;14.52;11.30;;;;;;;1.94;100.00;101736.72;5029346;28;20025;-84
2022/12/07 03:45:15;;;;;;;14.48;12.02;;;;;;;1.97;100.00;101728.88;5030333;28;20027;-81
2022/12/07 03:48:25;;;;;;;17.65;12.02;;;;;;;2.05;100.00;101729.56;5017757;28;20034;-80
2022/12/07 03:51:08;;;;;;;15.70;11.88;;;;;;;2.00;100.00;101723.59;4950660;29;20027;-80
2022/12/07 03:53:44;;;;;;;19.95;11.77;;;;;;;2.00;100.00;101729.66;4946253;28;20074;-80
2022/12/07 03:56:11;;;;;;;14.98;11.93;;;;;;;2.06;100.00;101731.25;4990533;28;20030;-80
2022/12/07 03:58:38;;;;;;;13.82;11.82;;;;;;;2.09;100.00;101736.38;5010958;28;20041;-81
2022/12/07 04:01:03;;;;;;;14.18;11.80;;;;;;;2.12;100.00;101736.28;5010466;28;20137;-80
2022/12/07 04:03:28;;;;;;;17.23;12.32;;;;;;;2.12;100.00;101733.69;5023283;28;20068;-80
2022/12/07 04:05:54;;;;;;;15.43;11.45;;;;;;;2.17;100.00;101731.84;4993605;28;20364;-80
2022/12/07 04:08:20;;;;;;;17.13;12.23;;;;;;;2.15;100.00;101726.69;5010555;28;20060;-81
2022/12/07 04:10:45;;;;;;;16.55;13.07;;;;;;;2.18;100.00;101721.41;5024671;28;20429;-81
2022/12/07 04:13:10;;;;;;;14.50;12.95;;;;;;;2.22;100.00;101719.59;5011979;28;20037;-81
2022/12/07 04:15:36;;;;;;;17.13;12.32;;;;;;;2.22;100.00;101717.00;5029374;28;20018;-85
2022/12/07 04:18:01;;;;;;;16.73;12.95;;;;;;;2.26;100.00;101718.63;5028982;28;20104;-81
2022/12/07 04:20:27;;;;;;;17.13;12.88;;;;;;;2.29;100.00;101723.72;5029914;28;20403;-84
2022/12/07 04:22:52;;;;;;;18.35;12.77;;;;;;;2.30;100.00;101722.84;5028559;28;20029;-78
2022/12/07 04:25:17;;;;;;;17.13;12.63;;;;;;;2.34;100.00;101731.41;5012389;28;20013;-81
2022/12/07 04:27:44;;;;;;;19.80;13.07;;;;;;;2.33;100.00;101725.34;5030191;28;20022;-81
2022/12/07 04:30:09;;;;;;;17.67;12.93;;;;;;;2.33;100.00;101714.97;5020724;28;20577;-81
2022/12/07 04:32:35;;;;;;;19.55;13.73;;;;;;;2.39;100.00;101714.81;5010343;28;20047;-79
2022/12/07 04:35:00;;;;;;;15.82;13.18;;;;;;;2.38;100.00;101712.25;5010691;28;20372;-79
2022/12/07 04:37:26;;;;;;;19.08;13.60;;;;;;;2.41;100.00;101707.00;5036547;28;20034;-85
2022/12/07 04:39:51;;;;;;;18.80;14.23;;;;;;;2.45;100.00;101706.88;5030050;28;20034;-80
2022/12/07 04:42:17;;;;;;;14.80;13.05;;;;;;;2.46;100.00;101707.72;5013676;28;20033;-80
2022/12/07 04:44:42;;;;;;;19.40;13.25;;;;;;;2.50;100.00;101706.75;5022785;28;20382;-83
2022/12/07 04:47:08;;;;;;;18.50;13.95;;;;;;;2.53;100.00;101716.22;5014484;28;20053;-83
2022/12/07 04:49:33;;;;;;;17.75;14.65;;;;;;;2.57;100.00;101713.47;5014331;28;20018;-80
2022/12/07 04:51:59;;;;;;;16.45;13.57;;;;;;;2.57;100.00;101713.47;5026532;28;20114;-83
2022/12/07 04:54:25;;;;;;;21.35;14.70;;;;;;;2.64;100.00;101717.63;5015745;28;20061;-79
2022/12/07 04:56:50;;;;;;;21.92;15.07;;;;;;;2.68;100.00;101710.59;5018545;28;20041;-79
2022/12/07 04:59:16;;;;;;;20.30;14.70;;;;;;;2.70;100.00;101708.78;5013171;28;20371;-79
2022/12/07 05:01:43;;;;;;;18.65;14.63;;;;;;;2.71;100.00;101698.34;5013979;28;20164;-79
2022/12/07 05:04:11;;;;;;;22.17;14.35;;;;;;;2.73;100.00;101699.16;5026097;28;20029;-79
2022/12/07 05:06:37;;;;;;;21.48;14.13;;;;;;;2.75;100.00;101693.94;5028584;28;20020;-79
2022/12/07 05:09:05;;;;;;;19.88;13.63;;;;;;;2.75;100.00;101693.94;5029977;28;20029;-83
2022/12/07 05:11:40;;;;;;;22.48;13.43;;;;;;;2.77;100.00;101695.59;5031659;28;20025;-79
2022/12/07 05:14:20;;;;;;;21.88;13.88;;;;;;;2.80;100.00;101699.84;5029046;28;20122;-79
2022/12/07 05:16:48;;;;;;;18.98;13.23;;;;;;;2.78;100.00;101696.44;5032061;28;20109;-83
2022/12/07 05:19:14;;;;;;;23.85;12.63;;;;;;;2.78;100.00;101694.69;5021210;28;20104;-79
2022/12/07 05:21:40;;;;;;;24.20;12.02;;;;;;;2.78;100.00;101696.44;5031936;28;20029;-79
2022/12/07 05:24:07;;;;;;;22.15;12.35;;;;;;;2.77;100.00;101695.59;5032933;28;20037;-79
2022/12/07 05:26:34;;;;;;;17.25;11.32;;;;;;;2.74;100.00;101694.81;5030784;28;20029;-79
2022/12/07 05:29:00;;;;;;;16.20;10.88;;;;;;;2.76;100.00;101698.22;5014673;28;20054;-79
2022/12/07 05:31:26;;;;;;;18.92;11.15;;;;;;;2.76;100.00;101698.22;5019168;28;20084;-79
2022/12/07 05:33:51;;;;;;;16.98;10.50;;;;;;;2.73;100.00;101693.13;5017739;28;20048;-83
2022/12/07 05:36:17;;;;;;;13.00;9.23;;;;;;;2.69;100.00;101696.69;5021388;28;20474;-83
2022/12/07 05:38:43;;;;;;;12.07;9.10;;;;;;;2.65;100.00;101689.88;5013296;28;20029;-83
2022/12/07 05:44:03;;;;;;;11.63;8.30;;;;;;;2.58;100.00;101690.94;5014912;28;20041;-83
2022/12/07 05:46:29;;;;;;;11.40;8.02;;;;;;;2.51;100.00;101688.53;5030825;28;20405;-83
2022/12/07 05:48:54;;;;;;;13.57;8.30;;;;;;;2.42;100.00;101688.78;5032442;28;20037;-83
2022/12/07 05:51:19;;;;;;;13.43;7.45;;;;;;;2.40;100.00;101695.75;5031891;28;20037;-80
2022/12/07 05:53:45;;;;;;;9.95;7.80;;;;;;;2.35;100.00;101689.81;5031910;28;20064;-80
2022/12/07 05:56:11;;;;;;;17.15;8.27;;;;;;;2.30;100.00;101688.22;5012938;28;20025;-83
2022/12/07 06:01:20;;;;;;;13.20;8.20;;;;;;;2.19;100.00;101685.91;5018018;28;20061;-84
2022/12/07 06:03:45;;;;;;;11.05;7.95;;;;;;;2.17;100.00;101685.13;5014103;28;20478;-80
2022/12/07 06:06:11;;;;;;;12.88;7.65;;;;;;;2.11;100.00;101682.69;5029732;28;20021;-80
2022/12/07 06:08:37;;;;;;;12.10;7.80;;;;;;;2.06;100.00;101689.72;5010162;28;20018;-80
2022/12/07 06:13:49;;;;;;;16.92;8.18;;;;;;;2.05;100.00;101690.63;5032359;28;20040;-80
2022/12/07 06:16:14;;;;;;;17.30;9.00;;;;;;;1.98;100.00;101694.22;5010000;28;20478;-80
2022/12/07 06:18:39;;;;;;;15.90;8.93;;;;;;;1.98;100.00;101699.44;5031400;28;20025;-81
2022/12/07 06:21:05;;;;;;;11.75;8.20;;;;;;;1.90;100.00;101691.84;5031256;28;20091;-81
2022/12/07 06:23:30;;;;;;;11.82;8.00;;;;;;;1.89;100.00;101698.78;5031756;28;20029;-81
2022/12/07 06:25:55;;;;;;;12.02;8.30;;;;;;;1.92;100.00;101695.25;5027468;28;20497;-81
2022/12/07 06:28:21;;;;;;;9.63;8.23;;;;;;;1.86;100.00;101693.66;5011926;28;20114;-81
2022/12/07 06:30:46;;;;;;;14.57;8.57;;;;;;;1.78;100.00;101700.78;5012007;28;20399;-81
2022/12/07 06:33:11;;;;;;;15.50;8.60;;;;;;;1.74;100.00;101693.97;5010354;28;20026;-81
2022/12/07 06:35:37;;;;;;;18.85;9.77;;;;;;;1.78;100.00;101694.72;5027574;28;20030;-81
2022/12/07 06:38:02;;;;;;;12.18;9.30;;;;;;;1.73;100.00;101697.44;5025694;28;20072;-81
2022/12/07 06:40:28;;;;;;;11.75;9.20;;;;;;;1.77;100.00;101698.22;5016994;28;20394;-81
2022/12/07 06:42:53;;;;;;;17.20;9.48;;;;;;;1.76;100.00;101697.38;5023521;28;20018;-81
2022/12/07 06:45:19;;;;;;;16.90;10.18;;;;;;;1.76;100.00;101702.56;5018003;28;20433;-81
2022/12/07 06:47:44;;;;;;;15.95;10.05;;;;;;;1.76;100.00;101702.56;5013926;28;20109;-81
2022/12/07 06:50:10;;;;;;;16.02;9.95;;;;;;;1.75;100.00;101706.03;5021612;28;20022;-81
2022/12/07 06:52:35;;;;;;;14.73;10.45;;;;;;;1.77;100.00;101699.06;5013170;28;20026;-81
2022/12/07 06:55:00;;;;;;;16.13;10.65;;;;;;;1.79;100.00;101696.44;5031657;28;20025;-81
2022/12/07 06:57:26;;;;;;;17.40;11.25;;;;;;;1.83;100.00;101692.88;5013902;28;20032;-84
2022/12/07 06:59:51;;;;;;;18.40;10.25;;;;;;;1.87;100.00;101699.69;5002476;28;20017;-81
2022/12/07 07:02:17;;;;;;;13.27;10.45;;;;;;;1.86;100.00;101698.84;5024202;28;20139;-81
2022/12/07 07:04:46;;;;;;;14.80;10.20;;;;;;;1.86;100.00;101698.00;5018764;28;20049;-80
2022/12/07 07:07:11;;;;;;;16.70;10.85;;;;;;;1.83;100.00;101698.91;5019443;28;20426;-83
2022/12/07 07:09:36;;;;;;;14.23;10.13;;;;;;;1.85;100.00;101697.13;5031350;28;20029;-83
2022/12/07 07:12:05;;;;;;;17.58;10.38;;;;;;;1.82;100.00;101702.41;5030755;28;20025;-82
2022/12/07 07:14:30;;;;;;;17.48;9.88;;;;;;;1.75;100.00;101706.03;5029534;28;20029;-79
2022/12/07 07:16:56;;;;;;;16.33;10.57;;;;;;;1.82;100.00;101707.59;5016101;28;20041;-80
2022/12/07 07:19:21;;;;;;;14.85;10.07;;;;;;;1.82;100.00;101702.41;5027166;28;20469;-80
2022/12/07 07:21:47;;;;;;;15.90;9.73;;;;;;;1.80;100.00;101713.72;5030002;28;20029;-80
2022/12/07 07:24:12;;;;;;;15.60;10.15;;;;;;;1.81;100.00;101710.22;5030742;28;20021;-81
2022/12/07 07:26:41;;;;;;;15.32;10.25;;;;;;;1.83;100.00;101705.84;5030573;28;20029;-81
2022/12/07 07:29:06;;;;;;;14.60;9.98;;;;;;;1.83;100.00;101703.25;5016926;28;20099;-80
2022/12/07 07:31:31;;;;;;;13.27;9.50;;;;;;;1.79;100.00;101712.00;5029216;28;20021;-80
2022/12/07 07:33:58;;;;;;;14.20;9.52;;;;;;;1.78;100.00;101707.72;5026453;28;20449;-81
2022/12/07 07:36:23;;;;;;;14.88;10.07;;;;;;;1.78;100.00;101705.97;5023798;28;20507;-81
2022/12/07 07:38:48;;;;;;;16.02;9.98;;;;;;;1.81;100.00;101708.47;5029170;28;20025;-81
2022/12/07 07:41:14;;;;;;;15.45;10.00;;;;;;;1.82;100.00;101715.38;5023940;28;20025;-81
2022/12/07 07:43:42;;;;;;;16.40;10.30;;;;;;;1.83;100.00;101711.91;5026259;28;20987;-80
2022/12/07 07:46:07;;;;;;;19.25;10.82;;;;;;;1.86;100.00;101723.94;5026759;28;20021;-80
2022/12/07 07:48:33;;;;;;;16.27;11.18;;;;;;;1.85;100.00;101712.72;5011606;28;20030;-81
2022/12/07 07:50:58;;;;;;;18.65;11.00;;;;;;;1.86;100.00;101719.59;5024253;28;20108;-81
2022/12/07 07:53:24;;;;;;;15.70;10.23;;;;;;;1.82;100.00;101715.38;5024173;28;20035;-81
2022/12/07 07:55:54;;;;;;;21.50;10.68;;;;;;;1.82;100.00;101717.13;5026398;28;20021;-81
2022/12/07 07:58:20;;;;;;;13.88;10.07;;;;;;;1.87;100.00;101715.25;5020234;28;20029;-81
2022/12/07 08:00:45;;;;;;;14.95;10.13;;;;;;;1.85;100.00;101715.31;5026227;28;20113;-81
2022/12/07 08:03:10;;;;;;;19.55;10.23;;;;;;;1.84;100.00;101713.59;5026487;28;20029;-81
2022/12/07 08:05:37;;;;;;;15.25;10.02;;;;;;;1.83;100.00;101716.22;5028565;28;20026;-80
2022/12/07 08:08:05;;;;;;;16.55;10.10;;;;;;;1.84;100.00;101720.53;5028279;28;20029;-81
2022/12/07 08:10:31;;;;;;;21.02;9.80;;;;;;;1.81;100.00;101723.19;5028317;28;20442;-81
2022/12/07 08:13:16;;;;;;;12.85;9.70;;;;;;;1.81;100.00;101725.78;5028973;28;20021;-80
2022/12/07 08:15:47;;;;;;;16.30;9.50;;;;;;;1.76;100.00;101725.91;5021187;28;20036;-81
2022/12/07 08:18:13;;;;;;;20.50;9.30;;;;;;;1.78;100.00;101726.72;5016047;28;20044;-81
2022/12/07 08:20:42;;;;;;;13.23;9.80;;;;;;;1.78;100.00;101725.88;5022880;28;20480;-81
2022/12/07 08:23:11;;;;;;;14.07;10.70;;;;;;;1.78;100.00;101733.66;5027688;28;20029;-80
2022/12/07 08:25:37;;;;;;;21.33;9.90;;;;;;;1.81;100.00;101729.25;5026326;28;20386;-80
2022/12/07 08:28:03;;;;;;;17.17;9.85;;;;;;;1.86;100.00;101729.97;5029158;28;20032;-80
2022/12/07 08:30:29;;;;;;;20.73;10.68;;;;;;;1.85;100.00;101730.00;5025315;28;20051;-81
2022/12/07 08:32:55;;;;;;;16.63;10.13;;;;;;;1.88;100.00;101741.19;5022022;28;20024;-77
2022/12/07 08:35:21;;;;;;;18.52;10.27;;;;;;;1.97;100.00;101747.03;5035653;28;20060;-81
2022/12/07 08:37:46;;;;;;;14.68;10.35;;;;;;;1.99;100.00;101745.25;5024899;28;20041;-81
2022/12/07 08:40:15;;;;;;;17.70;10.77;;;;;;;2.04;100.00;101743.41;5027873;28;20021;-81
2022/12/07 08:42:44;;;;;;;14.18;9.90;;;;;;;2.09;100.00;101746.75;5028729;28;20029;-81
2022/12/07 08:45:16;;;;;;;17.52;11.20;;;;;;;2.19;100.00;101749.06;5028523;28;20044;-87
2022/12/07 08:47:48;;;;;;;17.50;10.95;;;;;;;2.30;100.00;101756.59;5028248;28;20057;-80
2022/12/07 08:50:14;;;;;;;18.48;11.43;;;;;;;2.41;100.00;101749.41;5025900;28;20618;-80
2022/12/07 08:52:41;;;;;;;21.65;11.60;;;;;;;2.53;100.00;101739.59;5027716;28;20060;-80
2022/12/07 08:55:09;;;;;;;23.50;11.70;;;;;;;2.63;100.00;101743.63;5026322;28;20022;-80
2022/12/07 08:57:36;;;;;;;16.80;11.77;;;;;;;2.71;100.00;101739.06;5027825;28;20060;-84
2022/12/07 09:00:02;;;;;;;17.08;11.68;;;;;;;2.80;100.00;101729.31;5015060;28;20504;-79
2022/12/07 09:02:28;;;;;;;19.05;11.82;;;;;;;2.88;100.00;101731.69;5033760;28;20116;-79
2022/12/07 09:04:53;;;;;;;15.35;11.25;;;;;;;2.94;100.00;101739.31;5010549;28;20446;-79
2022/12/07 09:07:18;;;;;;;17.92;10.85;;;;;;;2.98;100.00;101725.34;5009606;28;20394;-80
2022/12/07 09:09:44;;;;;;;19.73;10.50;;;;;;;3.01;100.00;101725.25;5010362;28;20052;-84
2022/12/07 09:12:10;;;;;;;17.40;9.93;;;;;;;3.05;100.00;101716.47;5025956;28;20371;-78
2022/12/07 09:14:35;;;;;;;18.67;9.85;;;;;;;3.10;100.00;101722.38;5022116;28;20104;-80
2022/12/07 09:17:14;;;;;;;15.20;9.68;;;;;;;3.15;100.00;101719.63;5024090;28;20026;-84
2022/12/07 09:19:41;;;;;;;14.98;9.80;;;;;;;3.22;100.00;101722.94;5022433;28;20030;-85
2022/12/07 09:22:07;;;;;;;15.25;9.43;;;;;;;3.25;100.00;101722.84;5027585;28;20413;-80
2022/12/07 09:24:32;;;;;;;16.02;8.88;;;;;;;3.27;100.00;101721.03;5028806;28;20059;-80
2022/12/07 09:26:58;;;;;;;14.68;8.30;;;;;;;3.33;100.00;101731.25;5028729;28;20095;-80
2022/12/07 09:29:25;;;;;;;17.90;8.27;;;;;;;3.32;100.00;101729.56;5023862;28;20076;-80
2022/12/07 09:31:51;;;;;;;11.05;7.43;;;;;;;3.29;100.00;101729.66;5032976;28;20114;-80
2022/12/07 09:34:17;;;;;;;12.32;7.38;;;;;;;3.26;100.00;101724.53;5032594;28;20033;-80
2022/12/07 09:36:44;;;;;;;14.00;7.35;;;;;;;3.20;100.00;101729.91;5017182;28;20549;-80
2022/12/07 09:39:09;;;;;;;14.35;7.35;;;;;;;3.14;100.00;101736.97;5004773;28;20482;-80
2022/12/07 09:41:39;;;;;;;12.95;7.50;;;;;;;3.06;100.00;101727.72;5026961;28;20082;-80
2022/12/07 09:44:10;;;;;;;16.52;7.22;;;;;;;3.03;100.00;101738.19;5023344;28;20037;-81
2022/12/07 09:46:42;;;;;;;11.80;7.28;;;;;;;3.07;100.00;101726.81;5014513;28;20051;-80
2022/12/07 09:49:22;;;;;;;14.25;7.95;;;;;;;3.13;100.00;101729.22;5032296;28;20044;-84
2022/12/07 09:51:59;;;;;;;15.88;8.73;;;;;;;3.17;100.00;101730.00;5031126;28;20044;-80
2022/12/07 09:54:24;;;;;;;17.20;8.07;;;;;;;3.26;100.00;101730.59;5020429;28;20095;-81
2022/12/07 09:56:50;;;;;;;12.57;8.35;;;;;;;3.42;100.00;101726.63;5028704;28;20025;-80
2022/12/07 09:59:19;;;;;;;16.58;8.80;;;;;;;3.60;100.00;101732.16;5018231;28;20036;-80
2022/12/07 10:01:48;;;;;;;17.45;8.57;;;;;;;3.72;100.00;101730.03;5013112;28;20109;-80
2022/12/07 10:04:23;;;;;;;13.07;7.78;;;;;;;3.80;100.00;101728.94;5027833;28;20030;-81
2022/12/07 10:06:50;;;;;;;13.35;7.20;;;;;;;3.82;100.00;101728.00;5029160;28;20034;-80
2022/12/07 10:09:21;;;;;;;12.95;7.13;;;;;;;3.86;100.00;101720.94;5031315;28;20037;-80
2022/12/07 10:12:01;;;;;;;10.75;6.78;;;;;;;3.91;100.00;101719.03;5015516;28;20393;-80
2022/12/07 10:14:29;;;;;;;13.07;7.13;;;;;;;3.97;100.00;101713.63;5024540;28;20029;-81
2022/12/07 10:16:55;;;;;;;11.60;6.90;;;;;;;4.04;100.00;101705.59;5032910;28;20113;-81
2022/12/07 10:19:25;;;;;;;13.75;6.75;;;;;;;4.12;100.00;101697.53;5012339;28;20033;-81
2022/12/07 10:22:09;;;;;;;13.82;6.43;;;;;;;4.23;100.00;101703.22;5015826;28;20030;-81
2022/12/07 10:24:37;;;;;;;15.70;6.90;;;;;;;4.30;100.00;101704.69;5018607;28;20021;-81
2022/12/07 10:27:17;;;;;;;13.25;6.28;;;;;;;4.39;100.00;101701.78;5020111;28;20037;-81
2022/12/07 10:29:49;;;;;;;12.05;6.65;;;;;;;4.40;100.00;101705.22;4994058;28;20058;-80
2022/12/07 10:32:15;;;;;;;14.60;6.70;;;;;;;4.34;100.00;101698.47;5012887;28;20030;-80
2022/12/07 10:34:41;;;;;;;13.32;6.03;;;;;;;4.30;100.00;101681.25;5012433;28;20044;-80
2022/12/07 10:37:12;;;;;;;11.88;6.05;;;;;;;4.30;100.00;101696.03;5023501;28;20053;-81
2022/12/07 10:39:57;;;;;;;14.10;6.00;;;;;;;4.31;100.00;101688.16;5029416;28;20493;-80
2022/12/07 10:42:27;;;;;;;14.18;6.10;;;;;;;4.25;100.00;101690.13;5027426;28;20401;-81
2022/12/07 10:45:11;;;;;;;10.75;5.70;;;;;;;4.26;100.00;101684.88;5026909;28;20014;-80
2022/12/07 10:47:43;;;;;;;10.20;5.47;;;;;;;4.33;100.00;101678.53;5031204;28;20474;-80
2022/12/07 10:50:45;;;;;;;13.82;6.13;;;;;;;4.43;100.00;101681.69;5030247;28;20369;-81
2022/12/07 10:53:26;;;;;;;18.27;6.00;;;;;;;4.60;100.00;101678.47;5027778;28;20049;-81
2022/12/07 10:56:35;;;;;;;14.20;6.38;;;;;;;4.79;100.00;101674.28;5012855;28;20088;-81
2022/12/07 10:59:23;;;;;;;13.43;6.05;;;;;;;4.92;100.00;101664.28;5011422;28;20041;-84
2022/12/07 11:01:57;;;;;;;13.15;5.57;;;;;;;5.00;100.00;101668.28;5025025;28;20040;-84
2022/12/07 11:04:37;;;;;;;12.48;5.32;;;;;;;5.10;100.00;101657.50;5031078;28;20040;-84
2022/12/07 11:07:30;;;;;;;11.40;5.18;;;;;;;5.20;100.00;101658.84;5031981;28;20033;-84
2022/12/07 11:10:15;;;;;;;12.35;4.75;;;;;;;5.22;100.00;101660.53;5025124;28;20040;-85
2022/12/07 11:13:04;;;;;;;14.27;4.57;;;;;;;5.27;100.00;101649.91;5027587;28;20119;-84
2022/12/07 11:15:47;;;;;;;13.95;4.88;;;;;;;5.33;100.00;101650.50;5024060;28;20074;-84
2022/12/07 11:18:15;;;;;;;8.18;3.97;;;;;;;5.36;100.00;101644.31;5017178;28;20105;-84
2022/12/07 11:20:59;;;;;;;10.95;4.55;;;;;;;5.45;100.00;101643.09;5028483;28;20049;-85
2022/12/07 11:23:27;;;;;;;10.23;4.47;;;;;;;5.45;100.00;101638.72;5031471;28;20029;-84
2022/12/07 11:26:06;;;;;;;11.00;4.30;;;;;;;5.57;100.00;101626.94;5030300;28;20021;-84
2022/12/07 11:29:03;;;;;;;12.05;4.30;;;;;;;5.69;100.00;101636.06;5013275;28;20029;-85
2022/12/07 11:31:32;;;;;;;13.35;4.45;;;;;;;5.70;100.00;101630.75;5019074;28;20041;-84
2022/12/07 11:34:13;;;;;;;11.00;3.75;;;;;;;5.74;100.00;101628.88;5010493;28;20116;-80
2022/12/07 11:36:46;;;;;;;12.88;4.30;;;;;;;5.80;100.00;101628.63;5024662;28;20041;-80